Time;durP1;ratioP1;P1;durP2;ratioP2;P2;SDS_P1;SDS_P2;PMS_P1;PMS_P2;Temp;Humidity;BMP_temperature;BMP_pressure;BME280_temperature;BME280_humidity;BME280_pressure;Samples;Min_cycle;Max_cycle;Signal;HPM_P1;HPM_P2
2022/08/21 00:00:41;;;;;;;0.22;0.22;;;15.50;99.90;;;;;;5012480;28;20101;-84
2022/08/21 00:03:10;;;;;;;0.43;0.38;;;15.40;99.90;;;;;;5012852;28;20050;-84
2022/08/21 00:05:41;;;;;;;0.20;0.20;;;15.40;99.90;;;;;;5001595;28;20494;-84
2022/08/21 00:08:08;;;;;;;0.45;0.32;;;15.40;99.90;;;;;;5031802;28;20041;-83
2022/08/21 00:10:35;;;;;;;0.30;0.25;;;15.30;99.90;;;;;;5015518;28;20538;-83
2022/08/21 00:13:04;;;;;;;0.30;0.20;;;15.30;99.90;;;;;;5016001;28;20076;-84
2022/08/21 00:15:33;;;;;;;0.43;0.30;;;15.30;99.90;;;;;;5031508;28;20501;-84
2022/08/21 00:18:00;;;;;;;0.40;0.30;;;15.30;99.90;;;;;;5032154;28;20045;-84
2022/08/21 00:20:27;;;;;;;0.20;0.20;;;15.20;99.90;;;;;;5015634;28;20048;-84
2022/08/21 00:22:54;;;;;;;0.20;0.20;;;15.20;99.90;;;;;;5015716;28;20406;-84
2022/08/21 00:25:21;;;;;;;0.90;0.52;;;15.20;99.90;;;;;;5015617;28;20045;-84
2022/08/21 00:27:48;;;;;;;0.68;0.45;;;15.20;99.90;;;;;;5015256;28;20105;-84
2022/08/21 00:30:16;;;;;;;0.32;0.25;;;15.10;99.90;;;;;;4999833;28;20503;-84
2022/08/21 00:32:43;;;;;;;0.32;0.20;;;15.20;99.90;;;;;;5015099;28;20084;-84
2022/08/21 00:35:16;;;;;;;1.38;0.63;;;15.20;99.90;;;;;;4999315;28;20038;-84
2022/08/21 00:37:43;;;;;;;0.50;0.40;;;15.10;99.90;;;;;;5031764;28;20053;-84
2022/08/21 00:40:17;;;;;;;1.00;0.73;;;15.10;99.90;;;;;;5011995;28;20049;-84
2022/08/21 00:42:44;;;;;;;0.47;0.20;;;15.10;99.90;;;;;;5027543;28;20462;-84
2022/08/21 00:45:13;;;;;;;0.57;0.40;;;15.10;99.90;;;;;;5028529;28;20121;-84
2022/08/21 00:47:39;;;;;;;0.30;0.30;;;15.00;99.90;;;;;;5027592;28;20046;-84
2022/08/21 00:50:08;;;;;;;0.80;0.52;;;15.00;99.90;;;;;;5011905;28;20048;-84
2022/08/21 00:52:37;;;;;;;0.50;0.50;;;15.00;99.90;;;;;;5026555;28;20043;-84
2022/08/21 00:55:07;;;;;;;0.40;0.38;;;15.00;99.90;;;;;;5028067;28;20082;-84
2022/08/21 00:57:42;;;;;;;0.55;0.30;;;15.00;99.90;;;;;;5011816;28;20693;-84
2022/08/21 01:00:14;;;;;;;0.30;0.30;;;14.90;99.90;;;;;;5014752;28;20050;-84
2022/08/21 01:02:41;;;;;;;0.75;0.50;;;14.90;99.90;;;;;;5014600;28;20096;-84
2022/08/21 01:05:09;;;;;;;1.33;0.77;;;14.90;99.90;;;;;;4995391;28;20038;-84
2022/08/21 01:07:37;;;;;;;0.60;0.50;;;14.80;99.90;;;;;;5011030;28;20052;-84
2022/08/21 01:10:05;;;;;;;0.40;0.40;;;14.80;99.90;;;;;;4995506;28;20034;-83
2022/08/21 01:12:32;;;;;;;0.43;0.40;;;14.80;99.90;;;;;;4994736;28;20045;-83
2022/08/21 01:15:01;;;;;;;0.70;0.50;;;14.70;99.90;;;;;;4963095;28;20088;-84
2022/08/21 01:17:28;;;;;;;0.52;0.40;;;14.70;99.90;;;;;;4978982;28;20038;-84
2022/08/21 01:19:59;;;;;;;0.80;0.52;;;14.70;99.90;;;;;;4963291;28;20054;-84
2022/08/21 01:22:26;;;;;;;0.55;0.40;;;14.70;99.90;;;;;;4994996;28;20053;-84
2022/08/21 01:24:53;;;;;;;0.30;0.30;;;14.60;99.90;;;;;;4994857;28;20042;-84
2022/08/21 01:27:20;;;;;;;0.65;0.57;;;14.60;99.90;;;;;;4979056;28;20053;-84
2022/08/21 01:29:57;;;;;;;0.57;0.57;;;14.60;99.90;;;;;;4963048;28;20400;-84
2022/08/21 01:32:25;;;;;;;0.43;0.30;;;14.60;99.90;;;;;;4994915;28;20511;-84
2022/08/21 01:34:53;;;;;;;1.23;1.00;;;14.60;99.90;;;;;;4994642;28;20092;-83
2022/08/21 01:37:21;;;;;;;0.95;0.50;;;14.60;99.90;;;;;;4995179;28;20038;-84
2022/08/21 01:39:48;;;;;;;0.55;0.40;;;14.50;99.90;;;;;;4994310;28;20041;-84
2022/08/21 01:42:15;;;;;;;0.65;0.43;;;14.50;99.90;;;;;;4978833;28;20046;-84
2022/08/21 01:44:42;;;;;;;0.80;0.43;;;14.50;99.90;;;;;;4978630;28;20045;-84
2022/08/21 01:47:12;;;;;;;0.82;0.40;;;14.50;99.90;;;;;;4994697;28;20047;-84
2022/08/21 01:49:39;;;;;;;0.60;0.40;;;14.40;99.90;;;;;;5010784;28;20042;-84
2022/08/21 01:52:06;;;;;;;0.63;0.40;;;14.40;99.90;;;;;;4994357;28;20060;-83
2022/08/21 01:54:33;;;;;;;0.60;0.43;;;14.40;99.90;;;;;;4981173;28;20034;-84
2022/08/21 01:57:00;;;;;;;0.47;0.35;;;14.40;99.90;;;;;;5013574;28;20111;-83
2022/08/21 01:59:27;;;;;;;0.88;0.50;;;14.40;99.90;;;;;;5008796;28;20140;-84
2022/08/21 02:01:55;;;;;;;0.47;0.35;;;14.40;99.90;;;;;;5029533;28;20048;-84
2022/08/21 02:04:22;;;;;;;0.25;0.22;;;14.40;99.90;;;;;;4998097;28;20052;-84
2022/08/21 02:06:49;;;;;;;0.75;0.50;;;14.30;99.90;;;;;;5029880;28;20037;-84
2022/08/21 02:09:17;;;;;;;0.52;0.45;;;14.30;99.90;;;;;;5030068;28;20077;-84
2022/08/21 02:11:43;;;;;;;0.90;0.60;;;14.30;99.90;;;;;;5030116;28;20125;-84
2022/08/21 02:14:14;;;;;;;0.45;0.35;;;14.30;99.90;;;;;;4997149;28;20153;-84
2022/08/21 02:16:43;;;;;;;0.30;0.30;;;14.30;99.90;;;;;;5026442;28;20030;-84
2022/08/21 02:19:11;;;;;;;0.32;0.28;;;14.20;99.90;;;;;;5009873;28;20034;-84
2022/08/21 02:21:38;;;;;;;0.85;0.55;;;14.30;99.90;;;;;;5010261;28;20038;-83
2022/08/21 02:24:05;;;;;;;0.32;0.30;;;14.20;99.90;;;;;;4993618;28;20039;-83
2022/08/21 02:26:32;;;;;;;0.60;0.30;;;14.20;99.90;;;;;;4978019;28;20057;-83
2022/08/21 02:28:59;;;;;;;0.32;0.30;;;14.20;99.90;;;;;;4980832;28;20042;-84
2022/08/21 02:31:26;;;;;;;0.55;0.40;;;14.20;99.90;;;;;;4993954;28;20415;-85
2022/08/21 02:33:53;;;;;;;0.50;0.40;;;14.20;99.90;;;;;;4993689;28;20130;-84
2022/08/21 02:36:19;;;;;;;0.30;0.25;;;14.20;99.90;;;;;;4977918;28;20519;-84
2022/08/21 02:38:46;;;;;;;0.52;0.43;;;14.20;99.90;;;;;;4978172;28;20058;-84
2022/08/21 02:41:16;;;;;;;0.47;0.47;;;14.10;99.90;;;;;;4979401;28;20084;-84
2022/08/21 02:43:43;;;;;;;0.32;0.25;;;14.10;99.90;;;;;;5029472;28;20076;-84
2022/08/21 02:46:12;;;;;;;0.77;0.52;;;14.00;99.90;;;;;;5029442;28;20085;-85
2022/08/21 02:48:39;;;;;;;1.38;0.80;;;14.00;99.90;;;;;;5029276;28;20050;-83
2022/08/21 02:51:17;;;;;;;0.80;0.60;;;14.00;99.90;;;;;;5029436;28;20042;-84
2022/08/21 02:53:45;;;;;;;1.38;0.80;;;14.00;99.90;;;;;;5029441;28;20148;-84
2022/08/21 02:56:14;;;;;;;0.95;0.68;;;14.00;99.90;;;;;;5012969;28;20045;-84
2022/08/21 02:58:47;;;;;;;2.25;0.93;;;13.90;99.90;;;;;;5045147;28;20053;-84
2022/08/21 03:01:13;;;;;;;0.75;0.60;;;13.90;99.90;;;;;;5045435;28;20050;-84
2022/08/21 03:03:42;;;;;;;0.93;0.70;;;13.90;99.90;;;;;;5013197;28;20045;-83
2022/08/21 03:06:11;;;;;;;0.57;0.50;;;13.90;99.90;;;;;;5028777;28;20520;-83
2022/08/21 03:08:38;;;;;;;1.30;0.60;;;13.90;99.90;;;;;;5025766;28;20038;-83
2022/08/21 03:11:05;;;;;;;1.60;0.73;;;13.80;99.90;;;;;;5009679;28;20070;-84
2022/08/21 03:13:35;;;;;;;0.90;0.55;;;13.80;99.90;;;;;;5030692;28;20030;-84
2022/08/21 03:16:02;;;;;;;0.95;0.50;;;13.80;99.90;;;;;;4978150;28;20045;-84
2022/08/21 03:18:28;;;;;;;0.38;0.28;;;13.80;99.90;;;;;;5029585;28;20046;-84
2022/08/21 03:20:55;;;;;;;1.25;0.68;;;13.90;99.90;;;;;;4998917;28;20085;-84
2022/08/21 03:23:22;;;;;;;0.55;0.43;;;13.80;99.90;;;;;;5032810;28;20498;-84
2022/08/21 03:25:50;;;;;;;0.60;0.40;;;13.90;99.90;;;;;;5017100;28;20046;-84
2022/08/21 03:28:23;;;;;;;0.35;0.20;;;13.80;99.90;;;;;;5000691;28;20521;-84
2022/08/21 03:30:51;;;;;;;0.40;0.40;;;13.80;99.90;;;;;;5014001;28;20499;-83
2022/08/21 03:33:19;;;;;;;1.00;0.60;;;13.80;99.90;;;;;;5009857;28;20073;-84
2022/08/21 03:35:51;;;;;;;0.60;0.52;;;13.80;99.90;;;;;;5048975;28;20044;-84
2022/08/21 03:38:19;;;;;;;0.20;0.20;;;13.80;99.90;;;;;;5032499;28;20499;-85
2022/08/21 03:40:46;;;;;;;0.20;0.20;;;13.80;99.90;;;;;;5016757;28;20045;-84
2022/08/21 03:43:12;;;;;;;0.38;0.30;;;13.80;99.90;;;;;;4999946;28;20047;-84
2022/08/21 03:45:39;;;;;;;0.32;0.30;;;13.80;99.90;;;;;;5016420;28;20069;-84
2022/08/21 03:48:07;;;;;;;0.52;0.32;;;13.80;99.90;;;;;;5016099;28;20053;-84
2022/08/21 03:50:37;;;;;;;0.40;0.30;;;13.80;99.90;;;;;;5013223;28;20038;-83
2022/08/21 03:53:04;;;;;;;0.77;0.52;;;13.90;99.90;;;;;;5029457;28;20042;-84
2022/08/21 03:55:30;;;;;;;0.20;0.20;;;13.80;99.90;;;;;;5012690;28;20041;-83
2022/08/21 03:57:57;;;;;;;0.32;0.32;;;13.80;99.90;;;;;;5012603;28;20049;-84
2022/08/21 04:00:24;;;;;;;0.45;0.30;;;13.80;99.90;;;;;;4996144;28;20050;-83
2022/08/21 04:02:51;;;;;;;0.30;0.30;;;13.80;99.90;;;;;;4980313;28;20053;-83
2022/08/21 04:05:26;;;;;;;0.30;0.28;;;13.90;99.90;;;;;;4996559;28;20034;-84
2022/08/21 04:07:55;;;;;;;0.82;0.50;;;13.80;99.90;;;;;;5004192;28;20042;-84
2022/08/21 04:10:23;;;;;;;0.40;0.40;;;13.80;99.90;;;;;;4995700;28;20042;-84
2022/08/21 04:12:51;;;;;;;0.30;0.30;;;13.80;99.90;;;;;;4972532;28;20543;-84
2022/08/21 04:15:19;;;;;;;0.55;0.43;;;13.80;99.90;;;;;;4996028;28;20038;-83
2022/08/21 04:17:46;;;;;;;0.35;0.28;;;13.80;99.90;;;;;;4996079;28;20443;-83
2022/08/21 04:20:13;;;;;;;0.50;0.28;;;13.80;99.90;;;;;;4995908;28;20125;-84
2022/08/21 04:22:40;;;;;;;0.40;0.38;;;13.80;99.90;;;;;;4996260;28;20041;-83
2022/08/21 04:25:07;;;;;;;0.20;0.20;;;13.80;99.90;;;;;;4996191;28;20068;-84
2022/08/21 04:27:35;;;;;;;0.35;0.25;;;13.80;99.90;;;;;;4995862;28;20491;-84
2022/08/21 04:30:02;;;;;;;0.40;0.38;;;13.80;99.90;;;;;;4996381;28;20045;-84
2022/08/21 04:32:29;;;;;;;0.40;0.38;;;13.80;99.90;;;;;;4980167;28;20042;-83
2022/08/21 04:35:01;;;;;;;0.47;0.30;;;13.80;99.90;;;;;;4996134;28;20388;-84
2022/08/21 04:37:28;;;;;;;0.65;0.45;;;13.80;99.90;;;;;;5012966;28;20121;-83
2022/08/21 04:39:57;;;;;;;0.60;0.40;;;13.80;99.90;;;;;;4964374;28;20572;-83
2022/08/21 04:42:25;;;;;;;0.43;0.30;;;13.70;99.90;;;;;;4996135;28;20081;-84
2022/08/21 04:44:52;;;;;;;0.88;0.40;;;13.80;99.90;;;;;;5012335;28;20049;-84
2022/08/21 04:47:19;;;;;;;0.30;0.30;;;13.70;99.90;;;;;;4995463;28;20122;-84
2022/08/21 04:49:46;;;;;;;0.22;0.20;;;13.70;99.90;;;;;;4986655;28;20423;-84
2022/08/21 04:52:17;;;;;;;0.60;0.30;;;13.70;99.90;;;;;;4999138;28;20042;-84
2022/08/21 04:54:45;;;;;;;0.30;0.30;;;13.70;99.90;;;;;;5015458;28;20045;-83
2022/08/21 04:57:14;;;;;;;0.52;0.35;;;13.80;99.90;;;;;;4998980;28;20063;-84
2022/08/21 04:59:46;;;;;;;0.43;0.40;;;13.80;99.90;;;;;;5028185;28;20057;-83
2022/08/21 05:02:13;;;;;;;0.57;0.43;;;13.90;99.90;;;;;;5027804;28;20042;-84
2022/08/21 05:04:46;;;;;;;0.10;0.10;;;13.90;99.90;;;;;;5030768;28;20041;-84
2022/08/21 05:07:20;;;;;;;0.30;0.30;;;13.80;99.90;;;;;;5030989;28;20402;-84
2022/08/21 05:09:47;;;;;;;0.30;0.30;;;13.90;99.90;;;;;;5030868;28;20045;-84
2022/08/21 05:12:14;;;;;;;0.38;0.30;;;13.90;99.90;;;;;;4989145;28;20038;-84
2022/08/21 05:14:42;;;;;;;0.28;0.28;;;13.90;99.90;;;;;;4979313;28;20042;-84
2022/08/21 05:17:09;;;;;;;0.68;0.28;;;14.00;99.90;;;;;;4995587;28;20048;-84
2022/08/21 05:19:36;;;;;;;1.02;0.57;;;14.00;99.90;;;;;;4994831;28;20454;-84
2022/08/21 05:22:03;;;;;;;0.28;0.22;;;14.10;99.90;;;;;;5011288;28;20042;-84
2022/08/21 05:24:30;;;;;;;0.60;0.40;;;14.00;99.90;;;;;;4997970;28;20491;-84
2022/08/21 05:26:57;;;;;;;0.38;0.28;;;14.10;99.90;;;;;;4995021;28;20057;-84
2022/08/21 05:29:24;;;;;;;0.38;0.32;;;14.10;99.90;;;;;;4978785;28;20046;-84
2022/08/21 05:31:51;;;;;;;0.80;0.28;;;14.20;99.90;;;;;;4995266;28;20046;-84
2022/08/21 05:34:22;;;;;;;0.40;0.30;;;14.20;99.90;;;;;;5010976;28;20069;-84
2022/08/21 05:36:49;;;;;;;0.40;0.32;;;14.20;99.90;;;;;;5010874;28;20153;-84
2022/08/21 05:39:16;;;;;;;0.57;0.35;;;14.20;99.90;;;;;;5010485;28;20117;-84
2022/08/21 05:41:42;;;;;;;0.20;0.20;;;14.30;99.90;;;;;;4994619;28;20058;-84
2022/08/21 05:44:09;;;;;;;0.50;0.40;;;14.30;99.90;;;;;;4979062;28;20045;-84
2022/08/21 05:46:36;;;;;;;0.20;0.20;;;14.30;99.90;;;;;;4978539;28;20129;-84
2022/08/21 05:49:03;;;;;;;0.15;0.15;;;14.40;99.90;;;;;;4980127;28;20038;-83
2022/08/21 05:51:29;;;;;;;0.40;0.40;;;14.50;99.90;;;;;;5013620;28;20379;-84
2022/08/21 05:53:56;;;;;;;0.30;0.30;;;14.50;99.90;;;;;;5014052;28;20042;-84
2022/08/21 05:56:23;;;;;;;0.10;0.10;;;14.60;99.90;;;;;;5014039;28;20037;-84
2022/08/21 05:58:49;;;;;;;0.32;0.30;;;14.70;99.90;;;;;;4997761;28;20089;-83
2022/08/21 06:01:16;;;;;;;0.28;0.20;;;14.70;99.90;;;;;;5012276;28;20045;-84
2022/08/21 06:03:43;;;;;;;0.63;0.50;;;14.70;99.90;;;;;;4994212;28;20513;-84
2022/08/21 06:06:10;;;;;;;0.20;0.20;;;14.80;99.90;;;;;;4994612;28;20041;-83
2022/08/21 06:08:37;;;;;;;0.60;0.50;;;14.80;99.90;;;;;;4994179;28;20081;-84
2022/08/21 06:11:05;;;;;;;0.73;0.30;;;14.90;99.90;;;;;;4994371;28;20449;-84
2022/08/21 06:13:32;;;;;;;0.57;0.40;;;15.00;99.90;;;;;;4994204;28;20042;-84
2022/08/21 06:16:13;;;;;;;0.47;0.40;;;15.00;99.90;;;;;;4995374;28;20058;-84
2022/08/21 06:18:40;;;;;;;0.15;0.15;;;15.10;99.90;;;;;;5010044;28;20045;-85
2022/08/21 06:21:08;;;;;;;0.35;0.30;;;15.20;99.90;;;;;;4994406;28;20049;-83
2022/08/21 06:23:35;;;;;;;0.20;0.20;;;15.20;99.90;;;;;;4993942;28;20078;-83
2022/08/21 06:26:04;;;;;;;0.38;0.30;;;15.30;99.90;;;;;;4994099;28;20042;-84
2022/08/21 06:28:31;;;;;;;0.22;0.22;;;15.40;99.90;;;;;;4994064;28;20046;-84
2022/08/21 06:30:58;;;;;;;0.10;0.10;;;15.40;99.90;;;;;;5026248;28;20035;-84
2022/08/21 06:33:25;;;;;;;0.55;0.55;;;15.40;99.90;;;;;;4978323;28;20042;-84
2022/08/21 06:35:52;;;;;;;0.77;0.45;;;15.60;99.90;;;;;;4994003;28;20100;-84
2022/08/21 06:38:19;;;;;;;0.30;0.30;;;15.60;99.90;;;;;;4978016;28;20818;-84
2022/08/21 06:40:46;;;;;;;0.32;0.30;;;15.70;99.90;;;;;;5024293;28;20045;-83
2022/08/21 06:43:15;;;;;;;0.13;0.13;;;15.70;99.90;;;;;;5013511;28;20045;-84
2022/08/21 06:45:43;;;;;;;0.30;0.17;;;15.80;99.90;;;;;;5029079;28;20128;-84
2022/08/21 06:48:10;;;;;;;0.45;0.35;;;15.90;99.90;;;;;;4997181;28;20046;-84
2022/08/21 06:50:37;;;;;;;0.60;0.40;;;15.90;99.90;;;;;;5013262;28;20046;-84
2022/08/21 06:53:10;;;;;;;0.32;0.20;;;16.00;99.90;;;;;;5033684;28;20046;-84
2022/08/21 06:55:39;;;;;;;0.38;0.38;;;16.10;99.90;;;;;;5033326;28;20534;-84
2022/08/21 06:58:06;;;;;;;0.17;0.17;;;16.10;99.90;;;;;;5001174;28;20062;-84
2022/08/21 07:00:34;;;;;;;0.38;0.35;;;16.20;99.90;;;;;;5013506;28;20042;-84
2022/08/21 07:03:01;;;;;;;0.15;0.13;;;16.30;99.90;;;;;;5029944;28;20377;-84
2022/08/21 07:05:31;;;;;;;0.13;0.10;;;16.30;99.90;;;;;;4981897;28;20048;-84
2022/08/21 07:07:58;;;;;;;0.20;0.20;;;16.40;99.90;;;;;;5013460;28;20085;-83
2022/08/21 07:10:26;;;;;;;0.32;0.22;;;16.50;99.90;;;;;;5013993;28;20043;-84
2022/08/21 07:12:54;;;;;;;0.38;0.20;;;16.60;99.90;;;;;;4981437;28;20133;-84
2022/08/21 07:15:21;;;;;;;0.80;0.47;;;16.70;99.90;;;;;;5013642;28;20045;-84
2022/08/21 07:17:48;;;;;;;0.17;0.17;;;16.80;99.90;;;;;;5001134;28;20046;-84
2022/08/21 07:20:15;;;;;;;0.40;0.40;;;16.90;99.90;;;;;;5013949;28;20411;-84
2022/08/21 07:22:42;;;;;;;0.55;0.35;;;17.00;99.90;;;;;;5013241;28;20518;-84
2022/08/21 07:25:09;;;;;;;0.32;0.30;;;17.10;99.90;;;;;;5013574;28;20080;-84
2022/08/21 07:27:35;;;;;;;0.38;0.15;;;17.30;99.90;;;;;;5013161;28;20129;-84
2022/08/21 07:30:04;;;;;;;0.32;0.32;;;17.40;99.90;;;;;;5013097;28;20045;-84
2022/08/21 07:32:31;;;;;;;0.17;0.17;;;17.50;99.90;;;;;;5013447;28;20050;-83
2022/08/21 07:34:57;;;;;;;0.30;0.10;;;17.60;99.90;;;;;;5013068;28;20496;-84
2022/08/21 07:37:24;;;;;;;0.28;0.20;;;17.70;99.90;;;;;;5013294;28;20519;-84
2022/08/21 07:39:51;;;;;;;0.52;0.30;;;17.80;99.90;;;;;;4996949;28;20046;-84
2022/08/21 07:42:18;;;;;;;0.40;0.30;;;17.90;99.90;;;;;;5012954;28;20044;-84
2022/08/21 07:44:44;;;;;;;0.45;0.30;;;18.00;99.90;;;;;;5012695;28;20050;-84
2022/08/21 07:47:11;;;;;;;0.25;0.25;;;18.10;99.90;;;;;;5028969;28;20081;-84
2022/08/21 07:49:38;;;;;;;0.20;0.20;;;18.20;99.90;;;;;;5012837;28;20042;-84
2022/08/21 07:52:05;;;;;;;0.40;0.30;;;18.30;99.90;;;;;;5012882;28;20053;-84
2022/08/21 07:54:32;;;;;;;0.70;0.52;;;18.40;99.90;;;;;;5012830;28;20057;-83
2022/08/21 07:56:58;;;;;;;0.13;0.13;;;18.50;99.90;;;;;;5012789;28;20046;-84
2022/08/21 07:59:25;;;;;;;0.20;0.20;;;18.60;99.90;;;;;;5012411;28;20069;-83
2022/08/21 08:01:52;;;;;;;0.30;0.17;;;18.70;99.90;;;;;;5012047;28;20089;-84
2022/08/21 08:04:18;;;;;;;0.63;0.30;;;18.80;99.90;;;;;;5013031;28;20092;-85
2022/08/21 08:06:45;;;;;;;0.40;0.25;;;18.90;99.90;;;;;;5012641;28;20049;-84
2022/08/21 08:09:12;;;;;;;0.30;0.30;;;19.10;99.90;;;;;;5012625;28;20381;-83
2022/08/21 08:11:43;;;;;;;0.30;0.30;;;19.10;99.90;;;;;;5012607;28;20046;-84
2022/08/21 08:14:10;;;;;;;0.75;0.20;;;19.20;99.90;;;;;;5028990;28;20129;-84
2022/08/21 08:16:37;;;;;;;0.13;0.10;;;19.30;99.90;;;;;;5012510;28;20038;-84
2022/08/21 08:19:04;;;;;;;0.30;0.25;;;19.40;99.90;;;;;;5012208;28;20125;-84
2022/08/21 08:21:32;;;;;;;0.17;0.17;;;19.50;99.90;;;;;;5012441;28;20042;-85
2022/08/21 08:23:59;;;;;;;0.30;0.30;;;19.60;99.90;;;;;;5011995;28;20053;-84
2022/08/21 08:26:26;;;;;;;0.30;0.30;;;19.70;99.90;;;;;;5012273;28;20042;-84
2022/08/21 08:28:52;;;;;;;0.15;0.15;;;19.80;99.90;;;;;;5011992;28;20045;-84
2022/08/21 08:31:19;;;;;;;0.70;0.38;;;19.80;99.90;;;;;;5012247;28;20050;-85
2022/08/21 08:33:46;;;;;;;0.00;0.00;;;19.90;99.90;;;;;;5011715;28;20042;-84
2022/08/21 08:36:17;;;;;;;0.43;0.30;;;20.00;99.90;;;;;;5012790;28;20507;-84
2022/08/21 08:38:44;;;;;;;4.22;0.45;;;20.10;99.90;;;;;;5011764;28;20506;-84
2022/08/21 08:41:15;;;;;;;0.43;0.25;;;20.20;99.90;;;;;;5011749;28;20129;-84
2022/08/21 08:43:49;;;;;;;0.20;0.20;;;20.30;99.90;;;;;;5012367;28;20042;-84
2022/08/21 08:46:20;;;;;;;0.47;0.43;;;20.40;99.90;;;;;;5028278;28;20042;-84
2022/08/21 08:49:02;;;;;;;0.52;0.38;;;20.40;99.90;;;;;;5011344;28;20042;-84
2022/08/21 08:51:58;;;;;;;0.20;0.20;;;20.40;99.90;;;;;;5011971;28;20038;-84
2022/08/21 08:54:34;;;;;;;0.05;0.05;;;20.50;99.90;;;;;;4995177;28;20125;-84
2022/08/21 08:57:02;;;;;;;;;;;20.60;99.90;;;;;;5012217;28;20098;-84
2022/08/21 08:59:46;;;;;;;0.32;0.22;;;20.60;99.90;;;;;;5027975;28;19922;-84
2022/08/21 09:02:15;;;;;;;0.32;0.20;;;20.60;99.90;;;;;;5027537;28;20050;-84
2022/08/21 09:04:44;;;;;;;0.25;0.25;;;20.60;99.90;;;;;;5011735;28;20105;-84
2022/08/21 09:07:29;;;;;;;0.17;0.17;;;20.70;99.90;;;;;;5006471;28;20487;-84
2022/08/21 09:10:18;;;;;;;0.52;0.35;;;20.80;99.90;;;;;;5030874;28;20038;-84
2022/08/21 09:13:16;;;;;;;0.10;0.10;;;20.90;99.90;;;;;;5049167;28;20156;-84
2022/08/21 09:15:49;;;;;;;0.30;0.20;;;21.00;99.90;;;;;;5015735;28;20045;-84
2022/08/21 09:18:37;;;;;;;0.20;0.20;;;21.00;99.90;;;;;;5047068;28;20038;-84
2022/08/21 09:21:30;;;;;;;1.08;0.40;;;21.20;99.90;;;;;;5011449;28;20042;-84
2022/08/21 09:24:31;;;;;;;0.40;0.30;;;21.30;99.90;;;;;;5011117;28;20129;-84
2022/08/21 09:27:07;;;;;;;0.10;0.10;;;21.30;99.90;;;;;;5011030;28;20125;-84
2022/08/21 09:29:37;;;;;;;0.30;0.10;;;21.40;99.90;;;;;;5011178;28;20042;-84
2022/08/21 09:32:20;;;;;;;0.52;0.30;;;21.50;99.90;;;;;;5044010;28;20041;-85
2022/08/21 09:34:57;;;;;;;0.22;0.22;;;21.70;99.90;;;;;;5011291;28;20046;-84
2022/08/21 09:37:25;;;;;;;0.32;0.17;;;21.80;99.90;;;;;;5010868;28;20385;-85
2022/08/21 09:39:51;;;;;;;0.35;0.20;;;21.80;99.90;;;;;;4995118;28;20038;-84
2022/08/21 09:42:27;;;;;;;0.38;0.30;;;21.90;99.90;;;;;;4978700;28;20042;-84
2022/08/21 09:45:23;;;;;;;0.35;0.30;;;21.90;99.90;;;;;;5010803;28;20046;-84
2022/08/21 09:47:50;;;;;;;;;;;21.90;99.90;;;;;;4994782;28;20517;-84
2022/08/21 09:50:23;;;;;;;0.43;0.30;;;21.90;99.90;;;;;;5010171;28;19917;-84
2022/08/21 09:53:00;;;;;;;0.50;0.40;;;22.00;99.90;;;;;;5010588;28;20038;-84
2022/08/21 09:58:20;;;;;;;0.13;0.13;;;22.00;99.90;;;;;;5025894;28;20062;-84
2022/08/21 10:00:59;;;;;;;0.25;0.20;;;22.20;99.90;;;;;;4994262;28;20514;-84
2022/08/21 10:03:26;;;;;;;0.10;0.10;;;22.30;99.90;;;;;;5010393;28;20471;-84
2022/08/21 10:05:58;;;;;;;0.20;0.10;;;22.30;99.90;;;;;;4978590;28;20042;-84
2022/08/21 10:08:27;;;;;;;0.20;0.20;;;22.30;99.90;;;;;;5010504;28;20042;-84
2022/08/21 10:11:15;;;;;;;0.43;0.28;;;22.40;99.90;;;;;;5010624;28;20035;-83
2022/08/21 10:13:44;;;;;;;0.10;0.10;;;22.40;99.90;;;;;;5026767;28;20142;-83
2022/08/21 10:16:28;;;;;;;0.10;0.10;;;22.50;99.90;;;;;;5010213;28;20063;-84
2022/08/21 10:19:11;;;;;;;4.82;0.43;;;22.60;99.90;;;;;;5010092;28;20053;-84
2022/08/21 10:22:19;;;;;;;0.20;0.20;;;22.60;99.90;;;;;;5010295;28;20050;-85
2022/08/21 10:24:53;;;;;;;0.43;0.30;;;22.70;99.90;;;;;;5009511;28;20073;-84
2022/08/21 10:27:52;;;;;;;0.27;0.23;;;22.80;99.90;;;;;;5010019;28;20061;-84
2022/08/21 10:30:30;;;;;;;0.08;0.08;;;23.00;99.90;;;;;;5016491;28;20061;-85
2022/08/21 10:33:17;;;;;;;0.10;0.08;;;23.00;99.90;;;;;;5029971;28;20115;-84
2022/08/21 10:36:08;;;;;;;0.52;0.35;;;23.10;99.90;;;;;;5029168;28;20137;-83
2022/08/21 10:38:50;;;;;;;0.35;0.30;;;23.10;99.90;;;;;;5029534;28;20046;-83
2022/08/21 10:41:53;;;;;;;0.40;0.30;;;23.30;99.90;;;;;;5029255;28;20400;-83
2022/08/21 10:44:23;;;;;;;0.22;0.22;;;23.30;99.90;;;;;;5026915;28;20325;-84
2022/08/21 10:47:01;;;;;;;0.50;0.40;;;23.40;99.90;;;;;;5009845;28;20184;-84
2022/08/21 10:49:55;;;;;;;0.70;0.17;;;23.40;99.90;;;;;;5010095;28;20043;-84
2022/08/21 10:52:49;;;;;;;1.20;0.20;;;23.40;99.90;;;;;;5025809;28;20096;-84
2022/08/21 10:55:19;;;;;;;1.05;0.35;;;23.40;99.90;;;;;;5018367;28;20038;-84
2022/08/21 10:58:04;;;;;;;0.25;0.20;;;23.50;99.90;;;;;;5029252;28;20048;-84
2022/08/21 11:00:53;;;;;;;0.57;0.10;;;23.60;99.90;;;;;;5013287;28;20046;-84
2022/08/21 11:03:34;;;;;;;0.30;0.20;;;23.60;99.90;;;;;;5012475;28;20046;-83
2022/08/21 11:06:04;;;;;;;0.20;0.20;;;23.80;99.90;;;;;;5012981;28;20075;-84
2022/08/21 11:08:45;;;;;;;0.30;0.30;;;24.00;99.90;;;;;;4995901;28;20491;-83
2022/08/21 11:11:27;;;;;;;0.20;0.20;;;24.10;99.90;;;;;;4993391;28;20038;-83
2022/08/21 11:14:24;;;;;;;0.20;0.20;;;24.20;99.90;;;;;;5009914;28;20042;-81
2022/08/21 11:17:12;;;;;;;0.40;0.38;;;24.40;99.90;;;;;;4993439;28;20042;-85
2022/08/21 11:20:07;;;;;;;0.10;0.10;;;24.50;99.90;;;;;;4993370;28;20046;-87
2022/08/21 11:22:42;;;;;;;0.30;0.25;;;24.70;99.90;;;;;;4993330;28;20042;-80
2022/08/21 11:25:25;;;;;;;0.22;0.17;;;24.80;99.90;;;;;;4993315;28;20043;-82
2022/08/21 11:28:06;;;;;;;0.10;0.10;;;24.80;99.90;;;;;;4993559;28;20047;-81
2022/08/21 11:31:06;;;;;;;0.50;0.35;;;24.80;99.90;;;;;;5009928;28;20038;-82
2022/08/21 11:33:58;;;;;;;0.55;0.20;;;24.60;99.90;;;;;;4986166;28;20515;-81
2022/08/21 11:36:54;;;;;;;0.22;0.20;;;24.50;99.90;;;;;;4993267;28;20035;-81
2022/08/21 11:39:53;;;;;;;0.73;0.40;;;24.20;99.90;;;;;;4995860;28;20081;-81
2022/08/21 11:42:44;;;;;;;0.00;0.00;;;24.20;99.90;;;;;;5020093;28;20046;-81
2022/08/21 11:45:19;;;;;;;0.08;0.08;;;24.00;99.90;;;;;;5016420;28;20037;-81
2022/08/21 11:47:51;;;;;;;;;;;24.00;99.90;;;;;;5011601;28;20042;-81
2022/08/21 11:50:24;;;;;;;0.10;0.10;;;23.90;99.90;;;;;;5006205;28;20640;-82
2022/08/21 11:53:22;;;;;;;0.57;0.30;;;23.70;99.90;;;;;;5016403;28;20077;-82
2022/08/21 11:56:06;;;;;;;0.17;0.17;;;23.60;99.90;;;;;;4995714;28;20042;-82
2022/08/21 11:58:44;;;;;;;0.13;0.13;;;23.50;99.90;;;;;;5048081;28;20058;-83
2022/08/21 12:01:28;;;;;;;0.10;0.10;;;23.30;99.90;;;;;;5031765;28;20045;-82
2022/08/21 12:04:41;;;;;;;0.10;0.10;;;23.20;99.90;;;;;;5015921;28;20565;-84
2022/08/21 12:07:27;;;;;;;1.10;0.30;;;23.20;99.90;;;;;;4987830;28;20137;-86
2022/08/21 12:09:56;;;;;;;0.00;0.00;;;23.10;99.90;;;;;;5008818;28;20091;-82
2022/08/21 12:12:33;;;;;;;0.32;0.20;;;23.10;99.90;;;;;;5012267;28;20408;-81
2022/08/21 12:15:21;;;;;;;0.82;0.45;;;23.10;99.90;;;;;;5012664;28;20499;-85
2022/08/21 12:17:59;;;;;;;0.82;0.25;;;23.00;99.90;;;;;;5012658;28;20049;-85
2022/08/21 12:20:37;;;;;;;0.88;0.30;;;22.90;99.90;;;;;;5012157;28;20043;-81
2022/08/21 12:23:08;;;;;;;0.28;0.20;;;22.80;99.90;;;;;;5012293;28;20104;-81
2022/08/21 12:25:42;;;;;;;0.22;0.20;;;22.70;99.90;;;;;;5012433;28;20048;-86
2022/08/21 12:28:13;;;;;;;1.00;0.20;;;22.60;99.90;;;;;;5004934;28;20049;-86
2022/08/21 12:30:43;;;;;;;0.38;0.15;;;22.50;99.90;;;;;;5009169;28;20049;-84
2022/08/21 12:33:37;;;;;;;0.20;0.20;;;22.50;99.90;;;;;;5012495;28;20109;-85
2022/08/21 12:36:22;;;;;;;1.65;0.30;;;22.40;99.90;;;;;;5012621;28;20042;-81
2022/08/21 12:39:08;;;;;;;1.00;0.20;;;22.20;99.90;;;;;;5012386;28;20069;-81
2022/08/21 12:42:01;;;;;;;1.02;0.43;;;22.10;99.90;;;;;;5011834;28;20046;-85
2022/08/21 12:44:55;;;;;;;1.27;0.52;;;22.00;99.90;;;;;;4995472;28;20038;-81
2022/08/21 12:47:30;;;;;;;0.38;0.28;;;21.80;99.90;;;;;;4995704;28;20050;-81
2022/08/21 12:50:24;;;;;;;0.77;0.40;;;21.80;99.90;;;;;;5012253;28;20050;-86
2022/08/21 12:53:29;;;;;;;0.20;0.20;;;21.90;99.90;;;;;;5013464;28;20034;-86
2022/08/21 12:56:01;;;;;;;0.40;0.30;;;22.30;99.90;;;;;;4921751;29;20047;-85
2022/08/21 12:58:28;;;;;;;0.52;0.40;;;22.50;99.90;;;;;;5003606;28;20066;-85
2022/08/21 13:01:17;;;;;;;0.55;0.20;;;22.70;99.90;;;;;;5011988;28;20050;-80
2022/08/21 13:03:45;;;;;;;1.17;0.32;;;23.00;99.90;;;;;;5011387;28;20049;-85
2022/08/21 13:06:17;;;;;;;0.10;0.10;;;23.10;99.90;;;;;;5028160;28;20431;-83
2022/08/21 13:08:46;;;;;;;0.20;0.20;;;23.30;99.90;;;;;;5028797;28;20038;-85
2022/08/21 13:11:17;;;;;;;1.60;0.60;;;23.40;99.90;;;;;;5031508;28;20038;-85
2022/08/21 13:13:48;;;;;;;0.10;0.10;;;23.40;99.90;;;;;;5030872;28;20085;-82
2022/08/21 13:16:24;;;;;;;0.30;0.20;;;23.60;99.90;;;;;;5030963;28;20038;-85